sensor_id;sensor_type;location;lat;lon;timestamp;P1;durP1;ratioP1;P2;durP2;ratioP2
34926;SDS011;21132;48.308;14.274;2022-12-07T00:01:38;17.52;;;12.52;;
34926;SDS011;21132;48.308;14.274;2022-12-07T00:04:06;15.52;;;10.73;;
34926;SDS011;21132;48.308;14.274;2022-12-07T00:06:34;23.48;;;13.32;;
34926;SDS011;21132;48.308;14.274;2022-12-07T00:09:06;18.63;;;13.43;;
34926;SDS011;21132;48.308;14.274;2022-12-07T00:11:34;18.92;;;12.68;;
34926;SDS011;21132;48.308;14.274;2022-12-07T00:14:15;18.63;;;12.27;;
34926;SDS011;21132;48.308;14.274;2022-12-07T00:16:44;17.63;;;11.95;;
34926;SDS011;21132;48.308;14.274;2022-12-07T00:19:11;17.83;;;12.32;;
34926;SDS011;21132;48.308;14.274;2022-12-07T00:21:48;21.40;;;12.20;;
34926;SDS011;21132;48.308;14.274;2022-12-07T00:24:17;16.83;;;11.40;;
34926;SDS011;21132;48.308;14.274;2022-12-07T00:26:43;17.02;;;11.57;;
34926;SDS011;21132;48.308;14.274;2022-12-07T00:29:15;16.75;;;11.23;;
34926;SDS011;21132;48.308;14.274;2022-12-07T00:31:43;17.50;;;11.10;;
34926;SDS011;21132;48.308;14.274;2022-12-07T00:34:13;16.10;;;10.40;;
34926;SDS011;21132;48.308;14.274;2022-12-07T00:36:46;16.25;;;10.27;;
34926;SDS011;21132;48.308;14.274;2022-12-07T00:39:13;15.30;;;10.43;;
34926;SDS011;21132;48.308;14.274;2022-12-07T00:41:44;17.75;;;11.35;;
34926;SDS011;21132;48.308;14.274;2022-12-07T00:44:11;16.15;;;10.85;;
34926;SDS011;21132;48.308;14.274;2022-12-07T00:46:37;15.68;;;9.55;;
34926;SDS011;21132;48.308;14.274;2022-12-07T00:49:09;17.98;;;11.50;;
34926;SDS011;21132;48.308;14.274;2022-12-07T00:51:35;14.30;;;10.05;;
34926;SDS011;21132;48.308;14.274;2022-12-07T00:54:01;20.95;;;12.35;;
34926;SDS011;21132;48.308;14.274;2022-12-07T00:56:37;16.63;;;11.25;;
34926;SDS011;21132;48.308;14.274;2022-12-07T00:59:03;18.33;;;11.18;;
34926;SDS011;21132;48.308;14.274;2022-12-07T01:01:31;17.38;;;11.55;;
34926;SDS011;21132;48.308;14.274;2022-12-07T01:03:59;16.05;;;10.82;;
34926;SDS011;21132;48.308;14.274;2022-12-07T01:06:26;17.90;;;11.10;;
34926;SDS011;21132;48.308;14.274;2022-12-07T01:08:55;16.27;;;10.48;;
34926;SDS011;21132;48.308;14.274;2022-12-07T01:11:22;13.77;;;9.60;;
34926;SDS011;21132;48.308;14.274;2022-12-07T01:13:50;14.38;;;10.00;;
34926;SDS011;21132;48.308;14.274;2022-12-07T01:16:20;17.00;;;10.40;;
34926;SDS011;21132;48.308;14.274;2022-12-07T01:18:48;16.45;;;9.75;;
34926;SDS011;21132;48.308;14.274;2022-12-07T01:21:16;14.98;;;9.10;;
34926;SDS011;21132;48.308;14.274;2022-12-07T01:23:49;14.65;;;8.85;;
34926;SDS011;21132;48.308;14.274;2022-12-07T01:26:22;18.02;;;11.05;;
34926;SDS011;21132;48.308;14.274;2022-12-07T01:28:52;15.48;;;10.32;;
34926;SDS011;21132;48.308;14.274;2022-12-07T01:31:21;16.60;;;9.77;;
34926;SDS011;21132;48.308;14.274;2022-12-07T01:33:52;19.52;;;10.98;;
34926;SDS011;21132;48.308;14.274;2022-12-07T01:36:22;13.43;;;9.82;;
34926;SDS011;21132;48.308;14.274;2022-12-07T01:38:59;13.43;;;9.15;;
34926;SDS011;21132;48.308;14.274;2022-12-07T01:41:27;12.63;;;8.40;;
34926;SDS011;21132;48.308;14.274;2022-12-07T01:44:11;11.60;;;8.55;;
34926;SDS011;21132;48.308;14.274;2022-12-07T01:46:54;15.98;;;8.82;;
34926;SDS011;21132;48.308;14.274;2022-12-07T01:49:31;14.75;;;9.55;;
34926;SDS011;21132;48.308;14.274;2022-12-07T01:52:13;12.43;;;8.60;;
34926;SDS011;21132;48.308;14.274;2022-12-07T01:54:57;11.88;;;8.00;;
34926;SDS011;21132;48.308;14.274;2022-12-07T01:57:30;14.98;;;9.45;;
34926;SDS011;21132;48.308;14.274;2022-12-07T01:59:59;16.05;;;9.75;;
34926;SDS011;21132;48.308;14.274;2022-12-07T02:02:28;12.57;;;8.43;;
34926;SDS011;21132;48.308;14.274;2022-12-07T02:04:57;14.25;;;9.40;;
34926;SDS011;21132;48.308;14.274;2022-12-07T02:07:25;13.18;;;9.07;;
34926;SDS011;21132;48.308;14.274;2022-12-07T02:09:55;12.77;;;8.65;;
34926;SDS011;21132;48.308;14.274;2022-12-07T02:13:07;13.07;;;9.00;;
34926;SDS011;21132;48.308;14.274;2022-12-07T02:19:04;12.90;;;8.25;;
34926;SDS011;21132;48.308;14.274;2022-12-07T02:30:34;12.55;;;8.73;;
34926;SDS011;21132;48.308;14.274;2022-12-07T02:33:00;12.85;;;8.40;;
34926;SDS011;21132;48.308;14.274;2022-12-07T02:35:41;12.35;;;8.30;;
34926;SDS011;21132;48.308;14.274;2022-12-07T02:38:28;10.73;;;7.93;;
34926;SDS011;21132;48.308;14.274;2022-12-07T02:41:11;16.15;;;8.27;;
34926;SDS011;21132;48.308;14.274;2022-12-07T02:43:56;11.75;;;7.75;;
34926;SDS011;21132;48.308;14.274;2022-12-07T02:46:27;13.20;;;8.40;;
34926;SDS011;21132;48.308;14.274;2022-12-07T02:49:01;13.80;;;8.43;;
34926;SDS011;21132;48.308;14.274;2022-12-07T02:51:30;11.98;;;7.75;;
34926;SDS011;21132;48.308;14.274;2022-12-07T02:54:01;15.63;;;8.55;;
34926;SDS011;21132;48.308;14.274;2022-12-07T02:56:30;14.93;;;8.70;;
34926;SDS011;21132;48.308;14.274;2022-12-07T02:59:16;12.00;;;8.50;;
34926;SDS011;21132;48.308;14.274;2022-12-07T03:04:52;14.30;;;8.82;;
34926;SDS011;21132;48.308;14.274;2022-12-07T03:07:51;13.80;;;8.82;;
34926;SDS011;21132;48.308;14.274;2022-12-07T03:18:36;10.40;;;7.03;;
34926;SDS011;21132;48.308;14.274;2022-12-07T03:21:14;11.50;;;7.65;;
34926;SDS011;21132;48.308;14.274;2022-12-07T03:23:47;9.40;;;6.68;;
34926;SDS011;21132;48.308;14.274;2022-12-07T03:26:19;12.68;;;7.38;;
34926;SDS011;21132;48.308;14.274;2022-12-07T03:28:57;11.80;;;7.60;;
34926;SDS011;21132;48.308;14.274;2022-12-07T03:31:29;11.35;;;7.03;;
34926;SDS011;21132;48.308;14.274;2022-12-07T03:34:11;13.38;;;7.18;;
34926;SDS011;21132;48.308;14.274;2022-12-07T03:36:47;10.55;;;6.65;;
34926;SDS011;21132;48.308;14.274;2022-12-07T03:39:29;13.35;;;6.55;;
34926;SDS011;21132;48.308;14.274;2022-12-07T03:42:22;9.35;;;6.65;;
34926;SDS011;21132;48.308;14.274;2022-12-07T03:44:49;9.23;;;6.20;;
34926;SDS011;21132;48.308;14.274;2022-12-07T03:47:29;9.50;;;6.25;;
34926;SDS011;21132;48.308;14.274;2022-12-07T03:52:41;8.80;;;6.05;;
34926;SDS011;21132;48.308;14.274;2022-12-07T03:55:19;11.75;;;8.02;;
34926;SDS011;21132;48.308;14.274;2022-12-07T03:57:58;8.90;;;6.10;;
34926;SDS011;21132;48.308;14.274;2022-12-07T04:00:31;7.93;;;5.32;;
34926;SDS011;21132;48.308;14.274;2022-12-07T04:02:58;11.02;;;5.65;;
34926;SDS011;21132;48.308;14.274;2022-12-07T04:05:29;7.97;;;5.90;;
34926;SDS011;21132;48.308;14.274;2022-12-07T04:08:01;8.70;;;5.90;;
34926;SDS011;21132;48.308;14.274;2022-12-07T04:10:30;17.00;;;6.30;;
34926;SDS011;21132;48.308;14.274;2022-12-07T04:13:01;9.57;;;5.95;;
34926;SDS011;21132;48.308;14.274;2022-12-07T04:15:30;9.27;;;5.82;;
34926;SDS011;21132;48.308;14.274;2022-12-07T04:17:58;14.50;;;7.35;;
34926;SDS011;21132;48.308;14.274;2022-12-07T04:20:28;9.25;;;6.05;;
34926;SDS011;21132;48.308;14.274;2022-12-07T04:22:57;13.00;;;6.40;;
34926;SDS011;21132;48.308;14.274;2022-12-07T04:25:23;8.15;;;5.60;;
34926;SDS011;21132;48.308;14.274;2022-12-07T04:27:59;10.38;;;6.32;;
34926;SDS011;21132;48.308;14.274;2022-12-07T04:30:25;10.02;;;6.25;;
34926;SDS011;21132;48.308;14.274;2022-12-07T04:32:58;7.00;;;5.15;;
34926;SDS011;21132;48.308;14.274;2022-12-07T04:35:24;7.20;;;5.25;;
34926;SDS011;21132;48.308;14.274;2022-12-07T04:37:50;7.75;;;4.95;;
34926;SDS011;21132;48.308;14.274;2022-12-07T04:40:18;8.48;;;5.60;;
34926;SDS011;21132;48.308;14.274;2022-12-07T04:42:47;7.85;;;5.32;;
34926;SDS011;21132;48.308;14.274;2022-12-07T04:45:15;7.32;;;5.07;;
34926;SDS011;21132;48.308;14.274;2022-12-07T04:47:43;7.43;;;5.18;;
34926;SDS011;21132;48.308;14.274;2022-12-07T04:50:14;6.90;;;4.45;;
34926;SDS011;21132;48.308;14.274;2022-12-07T04:52:40;6.57;;;4.60;;
34926;SDS011;21132;48.308;14.274;2022-12-07T04:55:09;6.53;;;5.15;;
34926;SDS011;21132;48.308;14.274;2022-12-07T04:57:38;6.63;;;4.75;;
34926;SDS011;21132;48.308;14.274;2022-12-07T05:00:04;5.03;;;4.05;;
34926;SDS011;21132;48.308;14.274;2022-12-07T05:02:33;5.70;;;4.18;;
34926;SDS011;21132;48.308;14.274;2022-12-07T05:04:59;6.20;;;4.88;;
34926;SDS011;21132;48.308;14.274;2022-12-07T05:07:25;7.75;;;5.20;;
34926;SDS011;21132;48.308;14.274;2022-12-07T05:09:54;7.00;;;4.68;;
34926;SDS011;21132;48.308;14.274;2022-12-07T05:12:22;5.45;;;4.47;;
34926;SDS011;21132;48.308;14.274;2022-12-07T05:14:50;6.40;;;4.72;;
34926;SDS011;21132;48.308;14.274;2022-12-07T05:17:21;10.38;;;4.55;;
34926;SDS011;21132;48.308;14.274;2022-12-07T05:19:52;6.18;;;4.45;;
34926;SDS011;21132;48.308;14.274;2022-12-07T05:22:18;8.32;;;5.18;;
34926;SDS011;21132;48.308;14.274;2022-12-07T05:24:46;8.18;;;4.90;;
34926;SDS011;21132;48.308;14.274;2022-12-07T05:27:12;7.28;;;4.72;;
34926;SDS011;21132;48.308;14.274;2022-12-07T05:29:38;5.25;;;4.20;;
34926;SDS011;21132;48.308;14.274;2022-12-07T05:32:04;7.43;;;4.95;;
34926;SDS011;21132;48.308;14.274;2022-12-07T05:34:29;7.88;;;4.90;;
34926;SDS011;21132;48.308;14.274;2022-12-07T05:36:55;9.75;;;6.32;;
34926;SDS011;21132;48.308;14.274;2022-12-07T05:39:21;8.57;;;6.32;;
34926;SDS011;21132;48.308;14.274;2022-12-07T05:41:47;8.90;;;5.60;;
34926;SDS011;21132;48.308;14.274;2022-12-07T05:44:31;6.80;;;4.50;;
34926;SDS011;21132;48.308;14.274;2022-12-07T05:46:56;7.88;;;5.47;;
34926;SDS011;21132;48.308;14.274;2022-12-07T05:49:22;6.80;;;5.45;;
34926;SDS011;21132;48.308;14.274;2022-12-07T05:51:50;7.22;;;5.60;;
34926;SDS011;21132;48.308;14.274;2022-12-07T05:54:19;8.27;;;5.50;;
34926;SDS011;21132;48.308;14.274;2022-12-07T05:56:47;7.07;;;5.50;;
34926;SDS011;21132;48.308;14.274;2022-12-07T05:59:18;7.38;;;5.53;;
34926;SDS011;21132;48.308;14.274;2022-12-07T06:01:51;9.38;;;5.65;;
34926;SDS011;21132;48.308;14.274;2022-12-07T06:04:25;8.63;;;5.72;;
34926;SDS011;21132;48.308;14.274;2022-12-07T06:06:58;9.88;;;6.22;;
34926;SDS011;21132;48.308;14.274;2022-12-07T06:09:25;8.82;;;6.75;;
34926;SDS011;21132;48.308;14.274;2022-12-07T06:11:59;7.85;;;5.80;;
34926;SDS011;21132;48.308;14.274;2022-12-07T06:14:47;9.20;;;6.55;;
34926;SDS011;21132;48.308;14.274;2022-12-07T06:17:16;9.88;;;6.22;;
34926;SDS011;21132;48.308;14.274;2022-12-07T06:19:44;8.55;;;6.38;;
34926;SDS011;21132;48.308;14.274;2022-12-07T06:22:18;7.40;;;5.38;;
34926;SDS011;21132;48.308;14.274;2022-12-07T06:24:46;12.13;;;6.38;;
34926;SDS011;21132;48.308;14.274;2022-12-07T06:27:17;11.95;;;6.57;;
34926;SDS011;21132;48.308;14.274;2022-12-07T06:29:43;10.85;;;6.55;;
34926;SDS011;21132;48.308;14.274;2022-12-07T06:32:12;8.95;;;5.85;;
34926;SDS011;21132;48.308;14.274;2022-12-07T06:34:37;8.57;;;6.35;;
34926;SDS011;21132;48.308;14.274;2022-12-07T06:37:06;10.43;;;7.55;;
34926;SDS011;21132;48.308;14.274;2022-12-07T06:39:32;9.75;;;6.80;;
34926;SDS011;21132;48.308;14.274;2022-12-07T06:41:58;10.70;;;7.03;;
34926;SDS011;21132;48.308;14.274;2022-12-07T06:44:24;8.57;;;6.70;;
34926;SDS011;21132;48.308;14.274;2022-12-07T06:46:50;12.55;;;8.00;;
34926;SDS011;21132;48.308;14.274;2022-12-07T06:49:21;12.52;;;7.93;;
34926;SDS011;21132;48.308;14.274;2022-12-07T06:51:50;10.18;;;7.45;;
34926;SDS011;21132;48.308;14.274;2022-12-07T06:54:21;11.18;;;7.88;;
34926;SDS011;21132;48.308;14.274;2022-12-07T06:56:47;13.10;;;7.50;;
34926;SDS011;21132;48.308;14.274;2022-12-07T06:59:21;16.48;;;8.98;;
34926;SDS011;21132;48.308;14.274;2022-12-07T07:01:49;19.60;;;10.52;;
34926;SDS011;21132;48.308;14.274;2022-12-07T07:04:21;14.63;;;9.13;;
34926;SDS011;21132;48.308;14.274;2022-12-07T07:06:47;11.77;;;8.07;;
34926;SDS011;21132;48.308;14.274;2022-12-07T07:09:15;12.93;;;7.70;;
34926;SDS011;21132;48.308;14.274;2022-12-07T07:11:44;12.65;;;8.63;;
34926;SDS011;21132;48.308;14.274;2022-12-07T07:14:13;13.82;;;10.02;;
34926;SDS011;21132;48.308;14.274;2022-12-07T07:16:46;12.27;;;8.82;;
34926;SDS011;21132;48.308;14.274;2022-12-07T07:19:20;11.77;;;8.10;;
34926;SDS011;21132;48.308;14.274;2022-12-07T07:21:48;11.77;;;8.23;;
34926;SDS011;21132;48.308;14.274;2022-12-07T07:24:16;9.68;;;7.30;;
34926;SDS011;21132;48.308;14.274;2022-12-07T07:26:45;10.40;;;7.88;;
34926;SDS011;21132;48.308;14.274;2022-12-07T07:29:11;11.55;;;7.72;;
34926;SDS011;21132;48.308;14.274;2022-12-07T07:31:42;12.07;;;8.25;;
34926;SDS011;21132;48.308;14.274;2022-12-07T07:34:10;11.43;;;8.07;;
34926;SDS011;21132;48.308;14.274;2022-12-07T07:36:39;10.20;;;7.88;;
34926;SDS011;21132;48.308;14.274;2022-12-07T07:39:05;13.18;;;8.85;;
34926;SDS011;21132;48.308;14.274;2022-12-07T07:41:31;16.00;;;8.48;;
34926;SDS011;21132;48.308;14.274;2022-12-07T07:44:02;11.98;;;8.05;;
34926;SDS011;21132;48.308;14.274;2022-12-07T07:46:30;9.70;;;6.97;;
34926;SDS011;21132;48.308;14.274;2022-12-07T07:49:00;12.07;;;8.63;;
34926;SDS011;21132;48.308;14.274;2022-12-07T07:51:26;12.27;;;8.55;;
34926;SDS011;21132;48.308;14.274;2022-12-07T07:53:57;14.05;;;8.95;;
34926;SDS011;21132;48.308;14.274;2022-12-07T07:56:25;11.23;;;8.27;;
34926;SDS011;21132;48.308;14.274;2022-12-07T07:58:54;9.80;;;7.25;;
34926;SDS011;21132;48.308;14.274;2022-12-07T08:01:20;10.85;;;8.20;;
34926;SDS011;21132;48.308;14.274;2022-12-07T08:03:49;11.40;;;8.48;;
34926;SDS011;21132;48.308;14.274;2022-12-07T08:06:15;10.73;;;7.57;;
34926;SDS011;21132;48.308;14.274;2022-12-07T08:08:47;12.18;;;8.52;;
34926;SDS011;21132;48.308;14.274;2022-12-07T08:11:15;12.23;;;8.15;;
34926;SDS011;21132;48.308;14.274;2022-12-07T08:13:47;18.08;;;9.60;;
34926;SDS011;21132;48.308;14.274;2022-12-07T08:16:20;17.85;;;11.55;;
34926;SDS011;21132;48.308;14.274;2022-12-07T08:18:49;15.73;;;10.68;;
34926;SDS011;21132;48.308;14.274;2022-12-07T08:21:24;12.20;;;8.93;;
34926;SDS011;21132;48.308;14.274;2022-12-07T08:23:52;12.65;;;8.25;;
34926;SDS011;21132;48.308;14.274;2022-12-07T08:26:23;11.52;;;7.78;;
34926;SDS011;21132;48.308;14.274;2022-12-07T08:28:49;12.98;;;8.70;;
34926;SDS011;21132;48.308;14.274;2022-12-07T08:31:16;13.02;;;8.90;;
34926;SDS011;21132;48.308;14.274;2022-12-07T08:33:48;10.55;;;7.13;;
34926;SDS011;21132;48.308;14.274;2022-12-07T08:36:14;11.73;;;8.48;;
34926;SDS011;21132;48.308;14.274;2022-12-07T08:38:46;23.15;;;12.95;;
34926;SDS011;21132;48.308;14.274;2022-12-07T08:41:19;26.50;;;14.10;;
34926;SDS011;21132;48.308;14.274;2022-12-07T08:43:45;21.65;;;12.45;;
34926;SDS011;21132;48.308;14.274;2022-12-07T08:48:52;17.17;;;10.88;;
34926;SDS011;21132;48.308;14.274;2022-12-07T08:51:23;13.35;;;9.40;;
34926;SDS011;21132;48.308;14.274;2022-12-07T08:53:50;12.88;;;9.35;;
34926;SDS011;21132;48.308;14.274;2022-12-07T08:56:17;14.90;;;9.00;;
34926;SDS011;21132;48.308;14.274;2022-12-07T08:58:46;12.30;;;9.00;;
34926;SDS011;21132;48.308;14.274;2022-12-07T09:01:13;12.90;;;9.07;;
34926;SDS011;21132;48.308;14.274;2022-12-07T09:03:39;16.88;;;10.65;;
34926;SDS011;21132;48.308;14.274;2022-12-07T09:06:05;15.00;;;10.30;;
34926;SDS011;21132;48.308;14.274;2022-12-07T09:08:42;12.77;;;9.10;;
34926;SDS011;21132;48.308;14.274;2022-12-07T09:11:14;13.52;;;9.32;;
34926;SDS011;21132;48.308;14.274;2022-12-07T09:13:42;13.27;;;9.30;;
34926;SDS011;21132;48.308;14.274;2022-12-07T09:16:13;11.65;;;8.35;;
34926;SDS011;21132;48.308;14.274;2022-12-07T09:18:43;13.15;;;9.00;;
34926;SDS011;21132;48.308;14.274;2022-12-07T09:21:12;14.27;;;9.88;;
34926;SDS011;21132;48.308;14.274;2022-12-07T09:23:41;13.95;;;9.00;;
34926;SDS011;21132;48.308;14.274;2022-12-07T09:26:12;11.32;;;8.23;;
34926;SDS011;21132;48.308;14.274;2022-12-07T09:28:41;11.43;;;8.52;;
34926;SDS011;21132;48.308;14.274;2022-12-07T09:33:38;12.35;;;9.23;;
34926;SDS011;21132;48.308;14.274;2022-12-07T09:36:06;17.73;;;9.75;;
34926;SDS011;21132;48.308;14.274;2022-12-07T09:38:37;14.23;;;9.23;;
34926;SDS011;21132;48.308;14.274;2022-12-07T09:41:06;12.85;;;8.48;;
34926;SDS011;21132;48.308;14.274;2022-12-07T09:43:36;13.03;;;9.10;;
34926;SDS011;21132;48.308;14.274;2022-12-07T09:46:07;12.02;;;8.35;;
34926;SDS011;21132;48.308;14.274;2022-12-07T09:48:45;12.13;;;8.15;;
34926;SDS011;21132;48.308;14.274;2022-12-07T09:51:19;13.30;;;9.18;;
34926;SDS011;21132;48.308;14.274;2022-12-07T09:53:49;12.05;;;8.80;;
34926;SDS011;21132;48.308;14.274;2022-12-07T09:56:20;9.77;;;7.68;;
34926;SDS011;21132;48.308;14.274;2022-12-07T09:58:47;11.13;;;8.63;;
34926;SDS011;21132;48.308;14.274;2022-12-07T10:01:15;11.10;;;8.52;;
34926;SDS011;21132;48.308;14.274;2022-12-07T10:06:26;11.93;;;8.90;;
34926;SDS011;21132;48.308;14.274;2022-12-07T10:08:52;12.43;;;8.75;;
34926;SDS011;21132;48.308;14.274;2022-12-07T10:11:23;14.20;;;8.95;;
34926;SDS011;21132;48.308;14.274;2022-12-07T10:13:52;14.02;;;9.45;;
34926;SDS011;21132;48.308;14.274;2022-12-07T10:16:38;13.73;;;9.52;;
34926;SDS011;21132;48.308;14.274;2022-12-07T10:22:03;11.15;;;7.97;;
34926;SDS011;21132;48.308;14.274;2022-12-07T10:24:43;10.38;;;7.53;;
34926;SDS011;21132;48.308;14.274;2022-12-07T10:29:49;10.90;;;8.17;;
34926;SDS011;21132;48.308;14.274;2022-12-07T10:32:35;10.32;;;7.47;;
34926;SDS011;21132;48.308;14.274;2022-12-07T10:35:21;11.00;;;8.55;;
34926;SDS011;21132;48.308;14.274;2022-12-07T10:37:57;13.60;;;8.10;;
34926;SDS011;21132;48.308;14.274;2022-12-07T10:40:26;11.13;;;8.27;;
34926;SDS011;21132;48.308;14.274;2022-12-07T10:43:02;13.20;;;8.15;;
34926;SDS011;21132;48.308;14.274;2022-12-07T10:56:54;14.75;;;9.27;;
34926;SDS011;21132;48.308;14.274;2022-12-07T11:05:16;14.77;;;9.77;;
34926;SDS011;21132;48.308;14.274;2022-12-07T11:08:00;14.10;;;9.07;;
34926;SDS011;21132;48.308;14.274;2022-12-07T11:10:55;13.73;;;9.18;;
34926;SDS011;21132;48.308;14.274;2022-12-07T11:13:42;13.77;;;9.50;;
34926;SDS011;21132;48.308;14.274;2022-12-07T11:18:51;15.60;;;9.40;;
34926;SDS011;21132;48.308;14.274;2022-12-07T11:24:25;11.02;;;8.20;;
34926;SDS011;21132;48.308;14.274;2022-12-07T11:33:13;11.13;;;7.80;;
34926;SDS011;21132;48.308;14.274;2022-12-07T11:38:17;10.40;;;7.47;;
34926;SDS011;21132;48.308;14.274;2022-12-07T11:40:49;13.65;;;7.90;;
34926;SDS011;21132;48.308;14.274;2022-12-07T11:43:24;11.70;;;7.03;;
34926;SDS011;21132;48.308;14.274;2022-12-07T11:46:02;9.32;;;6.82;;
34926;SDS011;21132;48.308;14.274;2022-12-07T11:48:37;10.43;;;7.65;;
34926;SDS011;21132;48.308;14.274;2022-12-07T11:51:07;14.60;;;10.50;;
34926;SDS011;21132;48.308;14.274;2022-12-07T11:53:40;19.00;;;11.82;;
34926;SDS011;21132;48.308;14.274;2022-12-07T11:56:14;17.27;;;10.90;;
34926;SDS011;21132;48.308;14.274;2022-12-07T12:06:53;9.70;;;6.72;;
34926;SDS011;21132;48.308;14.274;2022-12-07T12:09:21;9.02;;;6.63;;
34926;SDS011;21132;48.308;14.274;2022-12-07T12:23:16;8.93;;;7.00;;
34926;SDS011;21132;48.308;14.274;2022-12-07T12:25:48;15.30;;;7.18;;
34926;SDS011;21132;48.308;14.274;2022-12-07T12:31:19;12.38;;;6.72;;
34926;SDS011;21132;48.308;14.274;2022-12-07T12:34:00;13.35;;;8.50;;
34926;SDS011;21132;48.308;14.274;2022-12-07T12:39:16;12.52;;;6.30;;
34926;SDS011;21132;48.308;14.274;2022-12-07T12:46:49;10.18;;;5.65;;
34926;SDS011;21132;48.308;14.274;2022-12-07T12:52:00;9.15;;;6.32;;
34926;SDS011;21132;48.308;14.274;2022-12-07T12:54:29;12.43;;;6.83;;
34926;SDS011;21132;48.308;14.274;2022-12-07T12:59:38;8.13;;;5.93;;
34926;SDS011;21132;48.308;14.274;2022-12-07T13:15:52;8.85;;;5.85;;
34926;SDS011;21132;48.308;14.274;2022-12-07T13:20:59;8.50;;;6.40;;
34926;SDS011;21132;48.308;14.274;2022-12-07T13:23:38;8.93;;;6.68;;
34926;SDS011;21132;48.308;14.274;2022-12-07T13:31:51;8.80;;;6.43;;
34926;SDS011;21132;48.308;14.274;2022-12-07T13:37:08;10.68;;;6.72;;
34926;SDS011;21132;48.308;14.274;2022-12-07T13:40:14;9.18;;;6.53;;
34926;SDS011;21132;48.308;14.274;2022-12-07T13:42:43;8.38;;;5.43;;
34926;SDS011;21132;48.308;14.274;2022-12-07T13:45:23;13.18;;;6.35;;
34926;SDS011;21132;48.308;14.274;2022-12-07T13:48:23;13.77;;;6.50;;
34926;SDS011;21132;48.308;14.274;2022-12-07T13:50:56;12.52;;;7.15;;
34926;SDS011;21132;48.308;14.274;2022-12-07T13:53:23;8.13;;;5.82;;
34926;SDS011;21132;48.308;14.274;2022-12-07T13:55:49;9.18;;;7.00;;
34926;SDS011;21132;48.308;14.274;2022-12-07T13:58:16;14.68;;;7.32;;
34926;SDS011;21132;48.308;14.274;2022-12-07T14:00:42;12.75;;;7.22;;
34926;SDS011;21132;48.308;14.274;2022-12-07T14:05:38;10.85;;;6.75;;
34926;SDS011;21132;48.308;14.274;2022-12-07T14:13:32;17.75;;;8.43;;
34926;SDS011;21132;48.308;14.274;2022-12-07T14:16:00;11.18;;;7.10;;
34926;SDS011;21132;48.308;14.274;2022-12-07T14:18:40;12.65;;;7.25;;
34926;SDS011;21132;48.308;14.274;2022-12-07T14:23:36;10.38;;;7.47;;
34926;SDS011;21132;48.308;14.274;2022-12-07T14:28:44;13.52;;;7.40;;
34926;SDS011;21132;48.308;14.274;2022-12-07T14:31:15;14.48;;;8.52;;
34926;SDS011;21132;48.308;14.274;2022-12-07T14:33:42;12.30;;;7.53;;
34926;SDS011;21132;48.308;14.274;2022-12-07T14:36:13;9.32;;;7.05;;
34926;SDS011;21132;48.308;14.274;2022-12-07T14:38:40;12.73;;;7.35;;
34926;SDS011;21132;48.308;14.274;2022-12-07T14:41:06;10.98;;;7.50;;
34926;SDS011;21132;48.308;14.274;2022-12-07T14:43:59;11.98;;;7.28;;
34926;SDS011;21132;48.308;14.274;2022-12-07T14:46:25;14.90;;;7.90;;
34926;SDS011;21132;48.308;14.274;2022-12-07T14:48:51;13.38;;;8.82;;
34926;SDS011;21132;48.308;14.274;2022-12-07T14:51:17;16.17;;;8.23;;
34926;SDS011;21132;48.308;14.274;2022-12-07T14:53:44;13.55;;;8.07;;
34926;SDS011;21132;48.308;14.274;2022-12-07T14:56:14;12.98;;;7.53;;
34926;SDS011;21132;48.308;14.274;2022-12-07T14:58:40;14.18;;;7.70;;
34926;SDS011;21132;48.308;14.274;2022-12-07T15:01:06;14.77;;;7.78;;
34926;SDS011;21132;48.308;14.274;2022-12-07T15:03:32;11.57;;;7.72;;
34926;SDS011;21132;48.308;14.274;2022-12-07T15:06:00;15.95;;;9.10;;
34926;SDS011;21132;48.308;14.274;2022-12-07T15:08:28;12.50;;;8.30;;
34926;SDS011;21132;48.308;14.274;2022-12-07T15:10:54;12.02;;;7.95;;
34926;SDS011;21132;48.308;14.274;2022-12-07T15:13:20;12.35;;;7.63;;
34926;SDS011;21132;48.308;14.274;2022-12-07T15:16:04;18.83;;;9.27;;
34926;SDS011;21132;48.308;14.274;2022-12-07T15:18:34;15.68;;;9.98;;
34926;SDS011;21132;48.308;14.274;2022-12-07T15:21:02;16.92;;;11.23;;
34926;SDS011;21132;48.308;14.274;2022-12-07T15:23:28;16.60;;;11.32;;
34926;SDS011;21132;48.308;14.274;2022-12-07T15:25:54;19.05;;;12.57;;
34926;SDS011;21132;48.308;14.274;2022-12-07T15:28:20;16.13;;;11.98;;
34926;SDS011;21132;48.308;14.274;2022-12-07T15:30:46;20.42;;;11.00;;
34926;SDS011;21132;48.308;14.274;2022-12-07T15:33:12;21.08;;;14.85;;
34926;SDS011;21132;48.308;14.274;2022-12-07T15:35:39;35.60;;;23.00;;
34926;SDS011;21132;48.308;14.274;2022-12-07T15:38:09;35.40;;;20.65;;
34926;SDS011;21132;48.308;14.274;2022-12-07T15:40:35;26.13;;;17.00;;
34926;SDS011;21132;48.308;14.274;2022-12-07T15:43:01;21.42;;;12.85;;
34926;SDS011;21132;48.308;14.274;2022-12-07T15:45:28;19.98;;;11.77;;
34926;SDS011;21132;48.308;14.274;2022-12-07T15:47:54;16.85;;;10.60;;
34926;SDS011;21132;48.308;14.274;2022-12-07T15:50:20;13.50;;;8.95;;
34926;SDS011;21132;48.308;14.274;2022-12-07T15:52:49;13.90;;;8.52;;
34926;SDS011;21132;48.308;14.274;2022-12-07T15:55:15;14.35;;;8.27;;
34926;SDS011;21132;48.308;14.274;2022-12-07T15:57:41;14.32;;;8.35;;
34926;SDS011;21132;48.308;14.274;2022-12-07T16:00:10;13.05;;;7.82;;
34926;SDS011;21132;48.308;14.274;2022-12-07T16:02:37;13.35;;;8.52;;
34926;SDS011;21132;48.308;14.274;2022-12-07T16:05:03;19.00;;;9.80;;
34926;SDS011;21132;48.308;14.274;2022-12-07T16:07:32;16.17;;;9.35;;
34926;SDS011;21132;48.308;14.274;2022-12-07T16:09:58;19.15;;;10.15;;
34926;SDS011;21132;48.308;14.274;2022-12-07T16:12:24;15.52;;;9.43;;
34926;SDS011;21132;48.308;14.274;2022-12-07T16:14:50;12.93;;;8.75;;
34926;SDS011;21132;48.308;14.274;2022-12-07T16:17:16;17.58;;;10.43;;
34926;SDS011;21132;48.308;14.274;2022-12-07T16:19:44;15.60;;;8.68;;
34926;SDS011;21132;48.308;14.274;2022-12-07T16:22:10;16.02;;;10.23;;
34926;SDS011;21132;48.308;14.274;2022-12-07T16:24:39;16.83;;;9.13;;
34926;SDS011;21132;48.308;14.274;2022-12-07T16:27:05;17.10;;;8.35;;
34926;SDS011;21132;48.308;14.274;2022-12-07T16:29:30;14.05;;;8.57;;
34926;SDS011;21132;48.308;14.274;2022-12-07T16:31:56;12.93;;;8.02;;
34926;SDS011;21132;48.308;14.274;2022-12-07T16:34:22;14.88;;;8.98;;
34926;SDS011;21132;48.308;14.274;2022-12-07T16:36:48;15.32;;;8.93;;
34926;SDS011;21132;48.308;14.274;2022-12-07T16:39:14;25.52;;;12.85;;
34926;SDS011;21132;48.308;14.274;2022-12-07T16:41:40;36.40;;;16.63;;
34926;SDS011;21132;48.308;14.274;2022-12-07T16:44:07;26.50;;;12.55;;
34926;SDS011;21132;48.308;14.274;2022-12-07T16:46:35;51.10;;;19.88;;
34926;SDS011;21132;48.308;14.274;2022-12-07T16:49:02;27.42;;;12.63;;
34926;SDS011;21132;48.308;14.274;2022-12-07T16:51:28;15.25;;;9.55;;
34926;SDS011;21132;48.308;14.274;2022-12-07T16:53:54;20.30;;;10.25;;
34926;SDS011;21132;48.308;14.274;2022-12-07T16:56:21;21.30;;;10.02;;
34926;SDS011;21132;48.308;14.274;2022-12-07T16:58:47;18.05;;;9.73;;
34926;SDS011;21132;48.308;14.274;2022-12-07T17:01:15;16.23;;;9.80;;
34926;SDS011;21132;48.308;14.274;2022-12-07T17:03:43;13.13;;;8.35;;
34926;SDS011;21132;48.308;14.274;2022-12-07T17:06:11;16.05;;;8.85;;